Baltimore, Maryland
Traffic Map
Current Weather Conditions
Baltimore, Maryland
Overcast Moderate Rain
Overcast
24°
Feels Like: 24°
Wind Chill: 24° Ceiling: 8500
Heat Index: 24° Visibility: 3mi
Dew Point: 23° Wind: 0mph
Humidity: 96% Direction: ° ()
Pressure: 29.85in Gusts: 0mph
Raw Report DataKBWI 290354Z 00000KT 3SM RA BR FEW010 BKN085 OVC110 24/23 A2985 RMK AO2 SLP107 P0018 T02390233
Traffic Incident Summary
Active as of:
Severity:
Category:
InformationThere was an issue retrieving the traffic information for this location. Please try a different location or try again shortly.
Advertisements
Track Severe Weather on mobile